Time;durP1;ratioP1;P1;durP2;ratioP2;P2;SDS_P1;SDS_P2;PMS_P1;PMS_P2;Temp;Humidity;BMP_temperature;BMP_pressure;BME280_temperature;BME280_humidity;BME280_pressure;Samples;Min_cycle;Max_cycle;Signal;HPM_P1;HPM_P2
2023/03/23 00:00:01;;;;;;;0.9;0.9;;;;;;;11.3;100.0;100040;;;;
2023/03/23 00:01:00;;;;;;;0.9;0.9;;;;;;;11.3;100.0;100030;;;;
2023/03/23 00:02:00;;;;;;;0.9;0.9;;;;;;;11.3;100.0;100030;;;;
2023/03/23 00:03:01;;;;;;;0.9;0.9;;;;;;;11.4;100.0;100030;;;;
2023/03/23 00:04:00;;;;;;;0.9;0.9;;;;;;;11.4;100.0;100030;;;;
2023/03/23 00:05:00;;;;;;;0.9;0.9;;;;;;;11.4;100.0;100030;;;;
2023/03/23 00:06:02;;;;;;;0.9;0.9;;;;;;;11.4;100.0;100030;;;;
2023/03/23 00:07:02;;;;;;;0.9;0.9;;;;;;;11.4;100.0;100020;;;;
2023/03/23 00:08:02;;;;;;;0.9;0.9;;;;;;;11.4;100.0;100020;;;;
2023/03/23 00:09:03;;;;;;;0.9;0.9;;;;;;;11.3;100.0;100020;;;;
2023/03/23 00:10:02;;;;;;;0.7;0.7;;;;;;;11.3;100.0;100020;;;;
2023/03/23 00:11:01;;;;;;;0.7;0.7;;;;;;;11.3;100.0;100030;;;;
2023/03/23 00:12:05;;;;;;;0.7;0.7;;;;;;;11.3;100.0;100030;;;;
2023/03/23 00:13:04;;;;;;;0.7;0.7;;;;;;;11.3;100.0;100040;;;;
2023/03/23 00:14:00;;;;;;;0.7;0.7;;;;;;;11.3;100.0;100040;;;;
2023/03/23 00:15:00;;;;;;;0.7;0.7;;;;;;;11.4;100.0;100040;;;;
2023/03/23 00:16:04;;;;;;;0.7;0.7;;;;;;;11.4;100.0;100040;;;;
2023/03/23 00:17:02;;;;;;;0.7;0.7;;;;;;;11.3;100.0;100040;;;;
2023/03/23 00:18:02;;;;;;;0.7;0.7;;;;;;;11.3;100.0;100040;;;;
2023/03/23 00:19:01;;;;;;;0.7;0.7;;;;;;;11.3;100.0;100030;;;;
2023/03/23 00:20:00;;;;;;;0.7;0.7;;;;;;;11.3;100.0;100030;;;;
2023/03/23 00:21:00;;;;;;;0.7;0.7;;;;;;;11.4;100.0;100020;;;;
2023/03/23 00:22:00;;;;;;;0.7;0.7;;;;;;;11.4;100.0;100020;;;;
2023/03/23 00:23:00;;;;;;;0.7;0.7;;;;;;;11.4;100.0;100030;;;;
2023/03/23 00:24:02;;;;;;;0.7;0.7;;;;;;;11.4;100.0;100030;;;;
2023/03/23 00:25:01;;;;;;;0.7;0.7;;;;;;;11.5;100.0;100030;;;;
2023/03/23 00:26:00;;;;;;;0.7;0.7;;;;;;;11.5;100.0;100030;;;;
2023/03/23 00:27:00;;;;;;;0.7;0.7;;;;;;;11.4;100.0;100040;;;;
2023/03/23 00:28:00;;;;;;;0.7;0.7;;;;;;;11.4;100.0;100040;;;;
2023/03/23 00:29:01;;;;;;;0.7;0.7;;;;;;;11.4;100.0;100040;;;;
2023/03/23 00:30:00;;;;;;;10.0;1.2;;;;;;;11.4;100.0;100040;;;;
2023/03/23 00:31:02;;;;;;;10.0;1.2;;;;;;;11.4;100.0;100040;;;;
2023/03/23 00:32:01;;;;;;;10.0;1.2;;;;;;;11.4;100.0;100040;;;;
2023/03/23 00:33:00;;;;;;;10.0;1.2;;;;;;;11.5;100.0;100040;;;;
2023/03/23 00:34:01;;;;;;;10.0;1.2;;;;;;;11.5;100.0;100040;;;;
2023/03/23 00:35:00;;;;;;;10.0;1.2;;;;;;;11.5;100.0;100040;;;;
2023/03/23 00:36:00;;;;;;;10.0;1.2;;;;;;;11.5;100.0;100040;;;;
2023/03/23 00:37:00;;;;;;;10.0;1.2;;;;;;;11.4;100.0;100040;;;;
2023/03/23 00:38:00;;;;;;;10.0;1.2;;;;;;;11.4;100.0;100040;;;;
2023/03/23 00:39:01;;;;;;;10.0;1.2;;;;;;;11.5;100.0;100040;;;;
2023/03/23 00:40:00;;;;;;;10.0;1.2;;;;;;;11.5;100.0;100040;;;;
2023/03/23 00:41:02;;;;;;;10.0;1.2;;;;;;;11.5;100.0;100040;;;;
2023/03/23 00:42:00;;;;;;;10.0;1.2;;;;;;;11.5;100.0;100040;;;;
2023/03/23 00:43:03;;;;;;;10.0;1.2;;;;;;;11.5;100.0;100040;;;;
2023/03/23 00:44:00;;;;;;;10.0;1.2;;;;;;;11.5;100.0;100040;;;;
2023/03/23 00:45:00;;;;;;;10.0;1.2;;;;;;;11.5;100.0;100040;;;;
2023/03/23 00:46:00;;;;;;;10.0;1.2;;;;;;;11.5;100.0;100040;;;;
2023/03/23 00:47:00;;;;;;;10.0;1.2;;;;;;;11.5;100.0;100040;;;;
2023/03/23 00:48:01;;;;;;;10.0;1.2;;;;;;;11.5;100.0;100040;;;;
2023/03/23 00:49:00;;;;;;;10.0;1.2;;;;;;;11.6;100.0;100040;;;;
2023/03/23 00:50:00;;;;;;;0.7;0.7;;;;;;;11.6;100.0;100040;;;;
2023/03/23 00:51:01;;;;;;;0.7;0.7;;;;;;;11.6;100.0;100040;;;;
2023/03/23 00:52:00;;;;;;;0.7;0.7;;;;;;;11.6;100.0;100040;;;;
2023/03/23 00:53:00;;;;;;;0.7;0.7;;;;;;;11.5;100.0;100040;;;;
2023/03/23 00:54:00;;;;;;;0.7;0.7;;;;;;;11.5;100.0;100040;;;;
2023/03/23 00:55:00;;;;;;;0.7;0.7;;;;;;;11.6;100.0;100030;;;;
2023/03/23 00:56:00;;;;;;;0.7;0.7;;;;;;;11.6;100.0;100030;;;;
2023/03/23 00:57:01;;;;;;;0.7;0.7;;;;;;;11.6;100.0;100030;;;;
2023/03/23 00:58:00;;;;;;;0.7;0.7;;;;;;;11.6;100.0;100030;;;;
2023/03/23 00:59:01;;;;;;;0.7;0.7;;;;;;;11.6;100.0;100020;;;;
2023/03/23 01:00:10;;;;;;;0.7;0.7;;;;;;;11.6;100.0;100020;;;;
2023/03/23 01:01:00;;;;;;;0.7;0.7;;;;;;;11.6;100.0;100020;;;;
2023/03/23 01:02:00;;;;;;;0.7;0.7;;;;;;;11.6;100.0;100020;;;;
2023/03/23 01:03:00;;;;;;;0.7;0.7;;;;;;;11.6;100.0;100020;;;;
2023/03/23 01:04:03;;;;;;;0.7;0.7;;;;;;;11.6;100.0;100020;;;;
2023/03/23 01:05:00;;;;;;;0.7;0.7;;;;;;;11.5;100.0;100020;;;;
2023/03/23 01:06:12;;;;;;;0.7;0.7;;;;;;;11.5;100.0;100020;;;;
2023/03/23 01:07:00;;;;;;;0.7;0.7;;;;;;;11.5;100.0;100020;;;;
2023/03/23 01:08:01;;;;;;;0.7;0.7;;;;;;;11.5;100.0;100020;;;;
2023/03/23 01:09:00;;;;;;;0.7;0.7;;;;;;;11.5;100.0;100020;;;;
2023/03/23 01:10:01;;;;;;;0.6;0.6;;;;;;;11.5;100.0;100020;;;;
2023/03/23 01:11:03;;;;;;;0.6;0.6;;;;;;;11.6;100.0;100010;;;;
2023/03/23 01:12:00;;;;;;;0.6;0.6;;;;;;;11.6;100.0;100010;;;;
2023/03/23 01:13:00;;;;;;;0.6;0.6;;;;;;;11.6;100.0;100000;;;;
2023/03/23 01:14:01;;;;;;;0.6;0.6;;;;;;;11.6;100.0;100000;;;;
2023/03/23 01:15:00;;;;;;;0.6;0.6;;;;;;;11.6;100.0;100000;;;;
2023/03/23 01:16:03;;;;;;;0.6;0.6;;;;;;;11.6;100.0;100000;;;;
2023/03/23 01:17:00;;;;;;;0.6;0.6;;;;;;;11.5;100.0;99990;;;;
2023/03/23 01:18:00;;;;;;;0.6;0.6;;;;;;;11.5;100.0;99990;;;;
2023/03/23 01:19:00;;;;;;;0.6;0.6;;;;;;;11.5;100.0;99990;;;;
2023/03/23 01:20:00;;;;;;;0.6;0.6;;;;;;;11.5;100.0;99990;;;;
2023/03/23 01:21:05;;;;;;;0.6;0.6;;;;;;;11.5;100.0;100000;;;;
2023/03/23 01:22:00;;;;;;;0.6;0.6;;;;;;;11.5;100.0;100000;;;;
2023/03/23 01:23:00;;;;;;;0.6;0.6;;;;;;;11.6;100.0;99980;;;;
2023/03/23 01:24:00;;;;;;;0.6;0.6;;;;;;;11.6;100.0;99980;;;;
2023/03/23 01:25:00;;;;;;;0.6;0.6;;;;;;;11.5;100.0;99960;;;;
2023/03/23 01:26:04;;;;;;;0.6;0.6;;;;;;;11.5;100.0;99960;;;;
2023/03/23 01:27:06;;;;;;;0.6;0.6;;;;;;;11.5;100.0;99960;;;;
2023/03/23 01:28:00;;;;;;;0.6;0.6;;;;;;;11.5;100.0;99960;;;;
2023/03/23 01:29:00;;;;;;;0.6;0.6;;;;;;;11.5;100.0;99960;;;;
2023/03/23 01:30:00;;;;;;;0.6;0.6;;;;;;;11.5;100.0;99960;;;;
2023/03/23 01:31:12;;;;;;;0.6;0.6;;;;;;;11.5;100.0;99950;;;;
2023/03/23 01:32:00;;;;;;;0.6;0.6;;;;;;;11.5;100.0;99950;;;;
2023/03/23 01:33:00;;;;;;;0.6;0.6;;;;;;;11.5;100.0;99970;;;;
2023/03/23 01:34:00;;;;;;;0.6;0.6;;;;;;;11.5;100.0;99970;;;;
2023/03/23 01:35:00;;;;;;;0.6;0.6;;;;;;;11.5;100.0;99950;;;;
2023/03/23 01:36:04;;;;;;;0.6;0.6;;;;;;;11.5;100.0;99950;;;;
2023/03/23 01:37:00;;;;;;;0.6;0.6;;;;;;;11.5;100.0;99950;;;;
2023/03/23 01:38:00;;;;;;;0.6;0.6;;;;;;;11.5;100.0;99950;;;;
2023/03/23 01:39:02;;;;;;;0.6;0.6;;;;;;;11.5;100.0;99960;;;;
2023/03/23 01:40:00;;;;;;;0.6;0.6;;;;;;;11.5;100.0;99960;;;;
2023/03/23 01:41:01;;;;;;;0.6;0.6;;;;;;;11.5;100.0;99960;;;;
2023/03/23 01:42:00;;;;;;;0.6;0.6;;;;;;;11.5;100.0;99960;;;;
2023/03/23 01:43:00;;;;;;;0.6;0.6;;;;;;;11.5;100.0;99950;;;;
2023/03/23 01:44:03;;;;;;;0.6;0.6;;;;;;;11.5;100.0;99950;;;;
2023/03/23 01:45:10;;;;;;;0.6;0.6;;;;;;;11.6;100.0;99950;;;;
2023/03/23 01:46:00;;;;;;;0.6;0.6;;;;;;;11.6;100.0;99950;;;;
2023/03/23 01:47:00;;;;;;;0.6;0.6;;;;;;;11.5;100.0;99950;;;;
2023/03/23 01:48:00;;;;;;;0.6;0.6;;;;;;;11.5;100.0;99950;;;;
2023/03/23 01:49:06;;;;;;;0.8;0.8;;;;;;;11.5;100.0;99950;;;;
2023/03/23 01:50:00;;;;;;;0.8;0.8;;;;;;;11.5;100.0;99950;;;;
2023/03/23 01:51:04;;;;;;;0.8;0.8;;;;;;;11.5;100.0;99950;;;;
2023/03/23 01:52:02;;;;;;;0.8;0.8;;;;;;;11.5;100.0;99950;;;;
2023/03/23 01:53:01;;;;;;;0.8;0.8;;;;;;;11.6;100.0;99950;;;;
2023/03/23 01:54:03;;;;;;;0.8;0.8;;;;;;;11.6;100.0;99950;;;;
2023/03/23 01:55:00;;;;;;;0.8;0.8;;;;;;;11.6;100.0;99940;;;;
2023/03/23 01:56:01;;;;;;;0.8;0.8;;;;;;;11.6;100.0;99940;;;;
2023/03/23 01:57:10;;;;;;;0.8;0.8;;;;;;;11.5;100.0;99950;;;;
2023/03/23 01:58:00;;;;;;;0.8;0.8;;;;;;;11.5;100.0;99950;;;;
2023/03/23 01:59:00;;;;;;;0.8;0.8;;;;;;;11.5;100.0;99950;;;;
2023/03/23 02:00:07;;;;;;;0.8;0.8;;;;;;;11.5;100.0;99950;;;;
2023/03/23 02:01:04;;;;;;;0.8;0.8;;;;;;;11.6;100.0;99940;;;;
2023/03/23 02:02:01;;;;;;;0.8;0.8;;;;;;;11.6;100.0;99940;;;;
2023/03/23 02:03:01;;;;;;;0.8;0.8;;;;;;;11.5;100.0;99930;;;;
2023/03/23 02:04:00;;;;;;;0.8;0.8;;;;;;;11.5;100.0;99930;;;;
2023/03/23 02:05:02;;;;;;;0.8;0.8;;;;;;;11.6;100.0;99930;;;;
2023/03/23 02:06:00;;;;;;;0.8;0.8;;;;;;;11.6;100.0;99930;;;;
2023/03/23 02:07:01;;;;;;;0.8;0.8;;;;;;;11.5;100.0;99930;;;;
2023/03/23 02:08:02;;;;;;;0.8;0.8;;;;;;;11.5;100.0;99930;;;;
2023/03/23 02:09:10;;;;;;;0.7;0.7;;;;;;;11.6;100.0;99930;;;;
2023/03/23 02:10:00;;;;;;;0.7;0.7;;;;;;;11.6;100.0;99930;;;;
2023/03/23 02:11:00;;;;;;;0.7;0.7;;;;;;;11.6;100.0;99920;;;;
2023/03/23 02:12:01;;;;;;;0.7;0.7;;;;;;;11.6;100.0;99920;;;;
2023/03/23 02:13:01;;;;;;;0.7;0.7;;;;;;;11.6;100.0;99920;;;;
2023/03/23 02:14:01;;;;;;;0.7;0.7;;;;;;;11.6;100.0;99920;;;;
2023/03/23 02:15:00;;;;;;;0.7;0.7;;;;;;;11.7;100.0;99920;;;;
2023/03/23 02:16:06;;;;;;;0.7;0.7;;;;;;;11.7;100.0;99920;;;;
2023/03/23 02:17:05;;;;;;;0.7;0.7;;;;;;;11.6;100.0;99920;;;;
2023/03/23 02:18:07;;;;;;;0.7;0.7;;;;;;;11.6;100.0;99920;;;;
2023/03/23 02:19:00;;;;;;;0.7;0.7;;;;;;;11.6;100.0;99920;;;;
2023/03/23 02:20:07;;;;;;;0.7;0.7;;;;;;;11.6;100.0;99920;;;;
2023/03/23 02:21:10;;;;;;;0.7;0.7;;;;;;;11.6;100.0;99910;;;;
2023/03/23 02:22:12;;;;;;;0.7;0.7;;;;;;;11.6;100.0;99910;;;;
2023/03/23 02:23:10;;;;;;;0.7;0.7;;;;;;;11.6;100.0;99900;;;;
2023/03/23 02:24:07;;;;;;;0.7;0.7;;;;;;;11.6;100.0;99900;;;;
2023/03/23 02:25:10;;;;;;;0.7;0.7;;;;;;;11.6;100.0;99910;;;;
2023/03/23 02:26:10;;;;;;;0.7;0.7;;;;;;;11.6;100.0;99910;;;;
2023/03/23 02:27:10;;;;;;;0.7;0.7;;;;;;;11.7;100.0;99900;;;;
2023/03/23 02:28:10;;;;;;;0.7;0.7;;;;;;;11.7;100.0;99900;;;;
2023/03/23 02:29:07;;;;;;;1.0;1.0;;;;;;;11.6;100.0;99900;;;;
2023/03/23 02:30:00;;;;;;;1.0;1.0;;;;;;;11.6;100.0;99900;;;;
2023/03/23 02:31:11;;;;;;;1.0;1.0;;;;;;;11.7;100.0;99910;;;;
2023/03/23 02:32:00;;;;;;;1.0;1.0;;;;;;;11.7;100.0;99910;;;;
2023/03/23 02:33:10;;;;;;;1.0;1.0;;;;;;;11.7;100.0;99910;;;;
2023/03/23 02:34:03;;;;;;;1.0;1.0;;;;;;;11.7;100.0;99910;;;;
2023/03/23 02:35:02;;;;;;;1.0;1.0;;;;;;;11.7;100.0;99910;;;;
2023/03/23 02:36:08;;;;;;;1.0;1.0;;;;;;;11.7;100.0;99910;;;;
2023/03/23 02:37:03;;;;;;;1.0;1.0;;;;;;;11.7;100.0;99910;;;;
2023/03/23 02:38:02;;;;;;;1.0;1.0;;;;;;;11.7;100.0;99910;;;;
2023/03/23 02:39:10;;;;;;;1.0;1.0;;;;;;;11.8;100.0;99910;;;;
2023/03/23 02:40:11;;;;;;;1.0;1.0;;;;;;;11.8;100.0;99910;;;;
2023/03/23 02:41:02;;;;;;;1.0;1.0;;;;;;;11.7;100.0;99920;;;;
2023/03/23 02:42:13;;;;;;;1.0;1.0;;;;;;;11.7;100.0;99920;;;;
2023/03/23 02:43:01;;;;;;;1.0;1.0;;;;;;;11.7;100.0;99910;;;;
2023/03/23 02:44:01;;;;;;;1.0;1.0;;;;;;;11.7;100.0;99910;;;;
2023/03/23 02:45:03;;;;;;;1.0;1.0;;;;;;;11.7;100.0;99910;;;;
2023/03/23 02:46:01;;;;;;;1.0;1.0;;;;;;;11.7;100.0;99910;;;;
2023/03/23 02:47:02;;;;;;;1.0;1.0;;;;;;;11.6;100.0;99910;;;;
2023/03/23 02:48:02;;;;;;;1.0;1.0;;;;;;;11.6;100.0;99910;;;;
2023/03/23 02:49:02;;;;;;;0.6;0.6;;;;;;;11.8;100.0;99900;;;;
2023/03/23 02:50:00;;;;;;;0.6;0.6;;;;;;;11.8;100.0;99900;;;;
2023/03/23 02:51:02;;;;;;;0.6;0.6;;;;;;;11.8;100.0;99900;;;;
2023/03/23 02:52:02;;;;;;;0.6;0.6;;;;;;;11.8;100.0;99900;;;;
2023/03/23 02:53:01;;;;;;;0.6;0.6;;;;;;;11.8;100.0;99900;;;;
2023/03/23 02:54:01;;;;;;;0.6;0.6;;;;;;;11.8;100.0;99900;;;;
2023/03/23 02:55:01;;;;;;;0.6;0.6;;;;;;;11.8;100.0;99900;;;;
2023/03/23 02:56:02;;;;;;;0.6;0.6;;;;;;;11.8;100.0;99900;;;;
2023/03/23 02:57:01;;;;;;;0.6;0.6;;;;;;;11.8;100.0;99910;;;;
2023/03/23 02:58:01;;;;;;;0.6;0.6;;;;;;;11.8;100.0;99910;;;;
2023/03/23 02:59:00;;;;;;;0.6;0.6;;;;;;;11.7;100.0;99910;;;;
2023/03/23 03:00:00;;;;;;;0.6;0.6;;;;;;;11.7;100.0;99910;;;;
2023/03/23 03:01:13;;;;;;;0.6;0.6;;;;;;;11.8;100.0;99910;;;;
2023/03/23 03:02:04;;;;;;;0.6;0.6;;;;;;;11.8;100.0;99910;;;;
2023/03/23 03:03:02;;;;;;;0.6;0.6;;;;;;;11.8;100.0;99910;;;;
2023/03/23 03:04:03;;;;;;;0.6;0.6;;;;;;;11.8;100.0;99910;;;;
2023/03/23 03:05:11;;;;;;;0.6;0.6;;;;;;;11.8;100.0;99900;;;;
2023/03/23 03:06:07;;;;;;;0.6;0.6;;;;;;;11.8;100.0;99900;;;;
2023/03/23 03:07:07;;;;;;;0.6;0.6;;;;;;;11.8;100.0;99900;;;;
2023/03/23 03:08:10;;;;;;;0.6;0.6;;;;;;;11.8;100.0;99900;;;;
2023/03/23 03:09:10;;;;;;;0.9;0.9;;;;;;;11.8;100.0;99910;;;;
2023/03/23 03:10:04;;;;;;;0.9;0.9;;;;;;;11.8;100.0;99910;;;;
2023/03/23 03:11:07;;;;;;;0.9;0.9;;;;;;;11.9;100.0;99900;;;;
2023/03/23 03:12:04;;;;;;;0.9;0.9;;;;;;;11.9;100.0;99900;;;;
2023/03/23 03:13:01;;;;;;;0.9;0.9;;;;;;;11.8;100.0;99900;;;;
2023/03/23 03:14:04;;;;;;;0.9;0.9;;;;;;;11.8;100.0;99900;;;;
2023/03/23 03:15:05;;;;;;;0.9;0.9;;;;;;;11.9;100.0;99900;;;;
2023/03/23 03:16:07;;;;;;;0.9;0.9;;;;;;;11.9;100.0;99900;;;;
2023/03/23 03:17:04;;;;;;;0.9;0.9;;;;;;;11.9;100.0;99910;;;;
2023/03/23 03:18:07;;;;;;;0.9;0.9;;;;;;;11.9;100.0;99910;;;;
2023/03/23 03:19:03;;;;;;;0.9;0.9;;;;;;;11.9;100.0;99910;;;;
2023/03/23 03:20:10;;;;;;;0.9;0.9;;;;;;;11.9;100.0;99910;;;;
2023/03/23 03:21:04;;;;;;;0.9;0.9;;;;;;;11.9;100.0;99910;;;;
2023/03/23 03:22:00;;;;;;;0.9;0.9;;;;;;;11.9;100.0;99910;;;;
2023/03/23 03:23:01;;;;;;;0.9;0.9;;;;;;;11.8;100.0;99910;;;;
2023/03/23 03:24:01;;;;;;;0.9;0.9;;;;;;;11.8;100.0;99910;;;;
2023/03/23 03:25:12;;;;;;;0.9;0.9;;;;;;;11.9;100.0;99910;;;;
2023/03/23 03:26:04;;;;;;;0.9;0.9;;;;;;;11.9;100.0;99910;;;;
2023/03/23 03:27:03;;;;;;;0.9;0.9;;;;;;;11.9;100.0;99910;;;;
2023/03/23 03:28:03;;;;;;;0.9;0.9;;;;;;;11.9;100.0;99910;;;;
2023/03/23 03:29:01;;;;;;;0.8;0.8;;;;;;;11.9;100.0;99900;;;;
2023/03/23 03:30:03;;;;;;;0.8;0.8;;;;;;;11.9;100.0;99900;;;;
2023/03/23 03:31:01;;;;;;;0.8;0.8;;;;;;;11.9;100.0;99920;;;;
2023/03/23 03:32:04;;;;;;;0.8;0.8;;;;;;;11.9;100.0;99920;;;;
2023/03/23 03:33:02;;;;;;;0.8;0.8;;;;;;;11.9;100.0;99910;;;;
2023/03/23 03:34:01;;;;;;;0.8;0.8;;;;;;;11.9;100.0;99910;;;;
2023/03/23 03:35:01;;;;;;;0.8;0.8;;;;;;;11.8;100.0;99910;;;;
2023/03/23 03:36:03;;;;;;;0.8;0.8;;;;;;;11.8;100.0;99910;;;;
2023/03/23 03:37:00;;;;;;;0.8;0.8;;;;;;;11.9;100.0;99910;;;;
2023/03/23 03:38:05;;;;;;;0.8;0.8;;;;;;;11.9;100.0;99910;;;;
2023/03/23 03:39:04;;;;;;;0.8;0.8;;;;;;;11.9;100.0;99910;;;;
2023/03/23 03:40:01;;;;;;;0.8;0.8;;;;;;;11.9;100.0;99910;;;;
2023/03/23 03:41:00;;;;;;;0.8;0.8;;;;;;;11.9;100.0;99910;;;;
2023/03/23 03:42:00;;;;;;;0.8;0.8;;;;;;;11.9;100.0;99910;;;;
2023/03/23 03:43:00;;;;;;;0.8;0.8;;;;;;;11.9;100.0;99910;;;;
2023/03/23 03:44:00;;;;;;;0.8;0.8;;;;;;;11.9;100.0;99910;;;;
2023/03/23 03:45:00;;;;;;;0.8;0.8;;;;;;;11.8;100.0;99910;;;;
2023/03/23 03:46:00;;;;;;;0.8;0.8;;;;;;;11.8;100.0;99910;;;;
2023/03/23 03:47:00;;;;;;;0.8;0.8;;;;;;;11.9;100.0;99910;;;;
2023/03/23 03:48:01;;;;;;;0.8;0.8;;;;;;;11.9;100.0;99910;;;;
2023/03/23 03:49:04;;;;;;;0.6;0.6;;;;;;;11.9;100.0;99910;;;;
2023/03/23 03:50:00;;;;;;;0.6;0.6;;;;;;;11.9;100.0;99910;;;;
2023/03/23 03:51:01;;;;;;;0.6;0.6;;;;;;;11.8;100.0;99920;;;;
2023/03/23 03:52:00;;;;;;;0.6;0.6;;;;;;;11.8;100.0;99920;;;;
2023/03/23 03:53:00;;;;;;;0.6;0.6;;;;;;;11.8;100.0;99920;;;;
2023/03/23 03:54:00;;;;;;;0.6;0.6;;;;;;;11.8;100.0;99920;;;;
2023/03/23 03:55:00;;;;;;;0.6;0.6;;;;;;;11.8;100.0;99910;;;;
2023/03/23 03:56:01;;;;;;;0.6;0.6;;;;;;;11.8;100.0;99910;;;;
2023/03/23 03:57:00;;;;;;;0.6;0.6;;;;;;;11.9;100.0;99910;;;;
2023/03/23 03:58:00;;;;;;;0.6;0.6;;;;;;;11.9;100.0;99910;;;;
2023/03/23 03:59:10;;;;;;;0.6;0.6;;;;;;;11.9;100.0;99920;;;;
2023/03/23 04:00:00;;;;;;;0.6;0.6;;;;;;;11.9;100.0;99920;;;;
2023/03/23 04:01:00;;;;;;;0.6;0.6;;;;;;;11.8;100.0;99910;;;;
2023/03/23 04:02:01;;;;;;;0.6;0.6;;;;;;;11.8;100.0;99910;;;;
2023/03/23 04:03:00;;;;;;;0.6;0.6;;;;;;;11.9;100.0;99920;;;;
2023/03/23 04:04:00;;;;;;;0.6;0.6;;;;;;;11.9;100.0;99920;;;;
2023/03/23 04:05:03;;;;;;;0.6;0.6;;;;;;;11.8;100.0;99910;;;;
2023/03/23 04:06:00;;;;;;;0.6;0.6;;;;;;;11.8;100.0;99910;;;;
2023/03/23 04:07:01;;;;;;;0.6;0.6;;;;;;;11.9;100.0;99920;;;;
2023/03/23 04:08:10;;;;;;;0.6;0.6;;;;;;;11.9;100.0;99920;;;;
2023/03/23 04:09:09;;;;;;;0.5;0.5;;;;;;;11.9;100.0;99920;;;;
2023/03/23 04:10:00;;;;;;;0.5;0.5;;;;;;;11.9;100.0;99920;;;;
2023/03/23 04:11:01;;;;;;;0.5;0.5;;;;;;;11.9;100.0;99920;;;;
2023/03/23 04:12:00;;;;;;;0.5;0.5;;;;;;;11.9;100.0;99920;;;;
2023/03/23 04:13:00;;;;;;;0.5;0.5;;;;;;;11.9;100.0;99920;;;;
2023/03/23 04:14:01;;;;;;;0.5;0.5;;;;;;;11.9;100.0;99920;;;;
2023/03/23 04:15:07;;;;;;;0.5;0.5;;;;;;;11.9;100.0;99920;;;;
2023/03/23 04:16:10;;;;;;;0.5;0.5;;;;;;;11.9;100.0;99920;;;;
2023/03/23 04:17:00;;;;;;;0.5;0.5;;;;;;;11.9;100.0;99920;;;;
2023/03/23 04:18:00;;;;;;;0.5;0.5;;;;;;;11.9;100.0;99920;;;;
2023/03/23 04:19:00;;;;;;;0.5;0.5;;;;;;;11.7;100.0;99920;;;;
2023/03/23 04:20:06;;;;;;;0.5;0.5;;;;;;;11.7;100.0;99920;;;;
2023/03/23 04:21:04;;;;;;;0.5;0.5;;;;;;;11.8;100.0;99920;;;;
2023/03/23 04:22:01;;;;;;;0.5;0.5;;;;;;;11.8;100.0;99920;;;;
2023/03/23 04:23:01;;;;;;;0.5;0.5;;;;;;;11.8;100.0;99910;;;;
2023/03/23 04:24:02;;;;;;;0.5;0.5;;;;;;;11.8;100.0;99910;;;;
2023/03/23 04:25:02;;;;;;;0.5;0.5;;;;;;;11.7;100.0;99930;;;;
2023/03/23 04:26:03;;;;;;;0.5;0.5;;;;;;;11.7;100.0;99930;;;;
2023/03/23 04:27:03;;;;;;;0.5;0.5;;;;;;;11.7;100.0;99920;;;;
2023/03/23 04:28:02;;;;;;;0.5;0.5;;;;;;;11.7;100.0;99920;;;;
2023/03/23 04:29:00;;;;;;;0.6;0.6;;;;;;;11.8;100.0;99930;;;;
2023/03/23 04:30:00;;;;;;;0.6;0.6;;;;;;;11.8;100.0;99930;;;;
2023/03/23 04:31:06;;;;;;;0.6;0.6;;;;;;;11.8;100.0;99930;;;;
2023/03/23 04:32:01;;;;;;;0.6;0.6;;;;;;;11.8;100.0;99930;;;;
2023/03/23 04:33:01;;;;;;;0.6;0.6;;;;;;;11.9;100.0;99930;;;;
2023/03/23 04:34:01;;;;;;;0.6;0.6;;;;;;;11.9;100.0;99930;;;;
2023/03/23 04:35:10;;;;;;;0.6;0.6;;;;;;;11.7;100.0;99930;;;;
2023/03/23 04:36:02;;;;;;;0.6;0.6;;;;;;;11.7;100.0;99930;;;;
2023/03/23 04:37:00;;;;;;;0.6;0.6;;;;;;;11.7;100.0;99940;;;;
2023/03/23 04:38:00;;;;;;;0.6;0.6;;;;;;;11.7;100.0;99940;;;;
2023/03/23 04:39:00;;;;;;;0.6;0.6;;;;;;;11.7;100.0;99940;;;;
2023/03/23 04:40:00;;;;;;;0.6;0.6;;;;;;;11.7;100.0;99940;;;;
2023/03/23 04:41:01;;;;;;;0.6;0.6;;;;;;;11.8;100.0;99940;;;;
2023/03/23 04:42:01;;;;;;;0.6;0.6;;;;;;;11.8;100.0;99940;;;;
2023/03/23 04:43:05;;;;;;;0.6;0.6;;;;;;;11.8;100.0;99950;;;;
2023/03/23 04:44:02;;;;;;;0.6;0.6;;;;;;;11.8;100.0;99950;;;;
2023/03/23 04:45:02;;;;;;;0.6;0.6;;;;;;;11.8;100.0;99950;;;;
2023/03/23 04:46:02;;;;;;;0.6;0.6;;;;;;;11.8;100.0;99950;;;;
2023/03/23 04:47:01;;;;;;;0.6;0.6;;;;;;;11.7;100.0;99950;;;;
2023/03/23 04:48:01;;;;;;;0.6;0.6;;;;;;;11.7;100.0;99950;;;;
2023/03/23 04:49:00;;;;;;;0.8;0.8;;;;;;;11.8;100.0;99950;;;;
2023/03/23 04:50:01;;;;;;;0.8;0.8;;;;;;;11.8;100.0;99950;;;;
2023/03/23 04:51:03;;;;;;;0.8;0.8;;;;;;;11.7;100.0;99950;;;;
2023/03/23 04:52:00;;;;;;;0.8;0.8;;;;;;;11.7;100.0;99950;;;;
2023/03/23 04:53:03;;;;;;;0.8;0.8;;;;;;;11.6;100.0;99950;;;;
2023/03/23 04:54:00;;;;;;;0.8;0.8;;;;;;;11.6;100.0;99950;;;;
2023/03/23 04:55:01;;;;;;;0.8;0.8;;;;;;;11.7;100.0;99950;;;;
2023/03/23 04:56:01;;;;;;;0.8;0.8;;;;;;;11.7;100.0;99950;;;;
2023/03/23 04:57:00;;;;;;;0.8;0.8;;;;;;;11.6;100.0;99940;;;;
2023/03/23 04:58:01;;;;;;;0.8;0.8;;;;;;;11.6;100.0;99940;;;;
2023/03/23 04:59:00;;;;;;;0.8;0.8;;;;;;;11.6;100.0;99950;;;;
2023/03/23 05:00:00;;;;;;;0.8;0.8;;;;;;;11.6;100.0;99950;;;;
2023/03/23 05:01:00;;;;;;;0.8;0.8;;;;;;;11.7;100.0;99940;;;;
2023/03/23 05:02:10;;;;;;;0.8;0.8;;;;;;;11.7;100.0;99940;;;;
2023/03/23 05:03:00;;;;;;;0.8;0.8;;;;;;;11.7;100.0;99950;;;;
2023/03/23 05:04:00;;;;;;;0.8;0.8;;;;;;;11.7;100.0;99950;;;;
2023/03/23 05:05:00;;;;;;;0.8;0.8;;;;;;;11.6;100.0;99950;;;;
2023/03/23 05:06:01;;;;;;;0.8;0.8;;;;;;;11.6;100.0;99950;;;;
2023/03/23 05:07:00;;;;;;;0.8;0.8;;;;;;;11.8;100.0;99950;;;;
2023/03/23 05:08:00;;;;;;;0.8;0.8;;;;;;;11.8;100.0;99950;;;;
2023/03/23 05:09:00;;;;;;;0.7;0.7;;;;;;;11.7;100.0;99960;;;;
2023/03/23 05:10:00;;;;;;;0.7;0.7;;;;;;;11.7;100.0;99960;;;;
2023/03/23 05:11:00;;;;;;;0.7;0.7;;;;;;;11.6;100.0;99950;;;;
2023/03/23 05:12:09;;;;;;;0.7;0.7;;;;;;;11.6;100.0;99950;;;;
2023/03/23 05:13:00;;;;;;;0.7;0.7;;;;;;;11.6;100.0;99940;;;;
2023/03/23 05:14:00;;;;;;;0.7;0.7;;;;;;;11.6;100.0;99940;;;;
2023/03/23 05:15:00;;;;;;;0.7;0.7;;;;;;;11.7;100.0;99940;;;;
2023/03/23 05:16:03;;;;;;;0.7;0.7;;;;;;;11.7;100.0;99940;;;;
2023/03/23 05:17:00;;;;;;;0.7;0.7;;;;;;;11.6;100.0;99950;;;;
2023/03/23 05:18:00;;;;;;;0.7;0.7;;;;;;;11.6;100.0;99950;;;;
2023/03/23 05:19:00;;;;;;;0.7;0.7;;;;;;;11.6;100.0;99950;;;;
2023/03/23 05:20:00;;;;;;;0.7;0.7;;;;;;;11.6;100.0;99950;;;;
2023/03/23 05:21:00;;;;;;;0.7;0.7;;;;;;;11.7;100.0;99950;;;;
2023/03/23 05:22:03;;;;;;;0.7;0.7;;;;;;;11.7;100.0;99950;;;;
2023/03/23 05:23:00;;;;;;;0.7;0.7;;;;;;;11.7;100.0;99950;;;;
2023/03/23 05:24:00;;;;;;;0.7;0.7;;;;;;;11.7;100.0;99950;;;;
2023/03/23 05:25:02;;;;;;;0.7;0.7;;;;;;;11.7;100.0;99950;;;;
2023/03/23 05:26:00;;;;;;;0.7;0.7;;;;;;;11.7;100.0;99950;;;;
2023/03/23 05:27:00;;;;;;;0.7;0.7;;;;;;;11.6;100.0;99940;;;;
2023/03/23 05:28:00;;;;;;;0.7;0.7;;;;;;;11.6;100.0;99940;;;;
2023/03/23 05:29:02;;;;;;;0.7;0.7;;;;;;;11.7;100.0;99950;;;;
2023/03/23 05:30:01;;;;;;;0.7;0.7;;;;;;;11.7;100.0;99950;;;;
2023/03/23 05:31:00;;;;;;;0.7;0.7;;;;;;;11.6;100.0;99940;;;;
2023/03/23 05:32:00;;;;;;;0.7;0.7;;;;;;;11.6;100.0;99940;;;;
2023/03/23 05:33:00;;;;;;;0.7;0.7;;;;;;;11.7;100.0;99950;;;;
2023/03/23 05:34:00;;;;;;;0.7;0.7;;;;;;;11.7;100.0;99950;;;;
2023/03/23 05:35:00;;;;;;;0.7;0.7;;;;;;;11.6;100.0;99950;;;;
2023/03/23 05:36:00;;;;;;;0.7;0.7;;;;;;;11.6;100.0;99950;;;;
2023/03/23 05:37:01;;;;;;;0.7;0.7;;;;;;;11.7;100.0;99950;;;;
2023/03/23 05:38:03;;;;;;;0.7;0.7;;;;;;;11.7;100.0;99950;;;;
2023/03/23 05:39:03;;;;;;;0.7;0.7;;;;;;;11.7;100.0;99950;;;;
2023/03/23 05:40:05;;;;;;;0.7;0.7;;;;;;;11.7;100.0;99950;;;;
2023/03/23 05:41:01;;;;;;;0.7;0.7;;;;;;;11.7;100.0;99950;;;;
2023/03/23 05:42:00;;;;;;;0.7;0.7;;;;;;;11.7;100.0;99950;;;;
2023/03/23 05:43:00;;;;;;;0.7;0.7;;;;;;;11.6;100.0;99950;;;;
2023/03/23 05:44:00;;;;;;;0.7;0.7;;;;;;;11.6;100.0;99950;;;;
2023/03/23 05:45:00;;;;;;;0.7;0.7;;;;;;;11.7;100.0;99960;;;;
2023/03/23 05:46:01;;;;;;;0.7;0.7;;;;;;;11.7;100.0;99960;;;;
2023/03/23 05:47:00;;;;;;;0.7;0.7;;;;;;;11.6;100.0;99960;;;;
2023/03/23 05:48:00;;;;;;;0.7;0.7;;;;;;;11.6;100.0;99960;;;;
2023/03/23 05:49:00;;;;;;;0.7;0.7;;;;;;;11.7;100.0;99960;;;;
2023/03/23 05:50:00;;;;;;;0.7;0.7;;;;;;;11.7;100.0;99960;;;;
2023/03/23 05:51:00;;;;;;;0.7;0.7;;;;;;;11.7;100.0;99950;;;;
2023/03/23 05:52:00;;;;;;;0.7;0.7;;;;;;;11.7;100.0;99950;;;;
2023/03/23 05:53:00;;;;;;;0.7;0.7;;;;;;;11.6;100.0;99960;;;;
2023/03/23 05:54:00;;;;;;;0.7;0.7;;;;;;;11.6;100.0;99960;;;;
2023/03/23 05:55:00;;;;;;;0.7;0.7;;;;;;;11.7;100.0;99960;;;;
2023/03/23 05:56:01;;;;;;;0.7;0.7;;;;;;;11.7;100.0;99960;;;;
2023/03/23 05:57:00;;;;;;;0.7;0.7;;;;;;;11.8;100.0;99960;;;;
2023/03/23 05:58:00;;;;;;;0.7;0.7;;;;;;;11.8;100.0;99960;;;;
2023/03/23 05:59:01;;;;;;;0.7;0.7;;;;;;;11.7;100.0;99960;;;;
2023/03/23 06:00:05;;;;;;;0.7;0.7;;;;;;;11.7;100.0;99960;;;;
2023/03/23 06:01:00;;;;;;;0.7;0.7;;;;;;;11.8;100.0;99960;;;;
2023/03/23 06:02:00;;;;;;;0.7;0.7;;;;;;;11.8;100.0;99960;;;;
2023/03/23 06:03:00;;;;;;;0.7;0.7;;;;;;;11.7;100.0;99960;;;;
2023/03/23 06:04:01;;;;;;;0.7;0.7;;;;;;;11.7;100.0;99960;;;;
2023/03/23 06:05:00;;;;;;;0.7;0.7;;;;;;;11.7;100.0;99960;;;;
2023/03/23 06:06:00;;;;;;;0.7;0.7;;;;;;;11.7;100.0;99960;;;;
2023/03/23 06:07:02;;;;;;;0.7;0.7;;;;;;;11.6;100.0;99960;;;;
2023/03/23 06:08:01;;;;;;;0.7;0.7;;;;;;;11.6;100.0;99960;;;;
2023/03/23 06:09:00;;;;;;;0.6;0.6;;;;;;;11.7;100.0;99970;;;;
2023/03/23 06:10:00;;;;;;;0.6;0.6;;;;;;;11.7;100.0;99970;;;;
2023/03/23 06:11:00;;;;;;;0.6;0.6;;;;;;;11.7;100.0;99980;;;;
2023/03/23 06:12:00;;;;;;;0.6;0.6;;;;;;;11.7;100.0;99980;;;;
2023/03/23 06:13:01;;;;;;;0.6;0.6;;;;;;;11.7;100.0;99970;;;;
2023/03/23 06:14:00;;;;;;;0.6;0.6;;;;;;;11.7;100.0;99970;;;;
2023/03/23 06:15:00;;;;;;;0.6;0.6;;;;;;;11.8;100.0;99970;;;;
2023/03/23 06:16:00;;;;;;;0.6;0.6;;;;;;;11.8;100.0;99970;;;;
2023/03/23 06:17:00;;;;;;;0.6;0.6;;;;;;;11.7;100.0;99970;;;;
2023/03/23 06:18:01;;;;;;;0.6;0.6;;;;;;;11.7;100.0;99970;;;;
2023/03/23 06:19:00;;;;;;;0.6;0.6;;;;;;;11.8;100.0;99970;;;;
2023/03/23 06:20:00;;;;;;;0.6;0.6;;;;;;;11.8;100.0;99970;;;;
2023/03/23 06:21:00;;;;;;;0.6;0.6;;;;;;;11.8;100.0;99980;;;;
2023/03/23 06:22:01;;;;;;;0.6;0.6;;;;;;;11.8;100.0;99980;;;;
2023/03/23 06:23:00;;;;;;;0.6;0.6;;;;;;;11.8;100.0;99980;;;;
2023/03/23 06:24:00;;;;;;;0.6;0.6;;;;;;;11.8;100.0;99980;;;;
2023/03/23 06:25:00;;;;;;;0.6;0.6;;;;;;;11.8;100.0;99990;;;;
2023/03/23 06:26:05;;;;;;;0.6;0.6;;;;;;;11.8;100.0;99990;;;;
2023/03/23 06:27:00;;;;;;;0.6;0.6;;;;;;;11.8;100.0;99990;;;;